sensor_id;sensor_type;location;lat;lon;timestamp;pressure;altitude;pressure_sealevel;temperature;humidity
39773;BME280;25451;51.960;6.250;2022-12-29T00:01:54;99915.19;;;11.03;84.89
39773;BME280;25451;51.960;6.250;2022-12-29T00:04:20;99910.47;;;11.04;84.54
39773;BME280;25451;51.960;6.250;2022-12-29T00:06:46;99899.19;;;11.05;84.77
39773;BME280;25451;51.960;6.250;2022-12-29T00:09:12;99910.78;;;11.07;84.81
39773;BME280;25451;51.960;6.250;2022-12-29T00:11:38;99909.66;;;11.08;84.74
39773;BME280;25451;51.960;6.250;2022-12-29T00:14:03;99897.78;;;11.08;84.80
39773;BME280;25451;51.960;6.250;2022-12-29T00:16:55;99896.69;;;11.09;84.75
39773;BME280;25451;51.960;6.250;2022-12-29T00:19:20;99904.16;;;11.08;84.76
39773;BME280;25451;51.960;6.250;2022-12-29T00:22:05;99895.88;;;11.08;84.60
39773;BME280;25451;51.960;6.250;2022-12-29T00:24:49;99892.03;;;11.09;84.87
39773;BME280;25451;51.960;6.250;2022-12-29T00:27:27;99892.03;;;11.09;84.70
39773;BME280;25451;51.960;6.250;2022-12-29T00:30:14;99889.25;;;11.09;84.72
39773;BME280;25451;51.960;6.250;2022-12-29T00:32:58;99883.97;;;11.08;84.68
39773;BME280;25451;51.960;6.250;2022-12-29T00:35:57;99883.72;;;11.09;84.76
39773;BME280;25451;51.960;6.250;2022-12-29T00:38:24;99862.44;;;11.10;84.54
39773;BME280;25451;51.960;6.250;2022-12-29T00:41:08;99866.31;;;11.09;84.66
39773;BME280;25451;51.960;6.250;2022-12-29T00:43:52;99860.81;;;11.09;84.52
39773;BME280;25451;51.960;6.250;2022-12-29T00:46:36;99874.88;;;11.12;84.76
39773;BME280;25451;51.960;6.250;2022-12-29T00:49:02;99875.72;;;11.13;84.50
39773;BME280;25451;51.960;6.250;2022-12-29T00:51:47;99857.47;;;11.12;84.40
39773;BME280;25451;51.960;6.250;2022-12-29T00:54:13;99854.16;;;11.10;84.64
39773;BME280;25451;51.960;6.250;2022-12-29T00:56:38;99850.88;;;11.13;84.63
39773;BME280;25451;51.960;6.250;2022-12-29T00:59:07;99855.56;;;11.12;84.66
39773;BME280;25451;51.960;6.250;2022-12-29T01:01:34;99842.59;;;11.13;84.55
39773;BME280;25451;51.960;6.250;2022-12-29T01:04:00;99835.16;;;11.13;84.42
39773;BME280;25451;51.960;6.250;2022-12-29T01:06:25;99832.38;;;11.13;84.81
39773;BME280;25451;51.960;6.250;2022-12-29T01:08:51;99839.53;;;11.14;84.62
39773;BME280;25451;51.960;6.250;2022-12-29T01:11:39;99832.38;;;11.13;84.75
39773;BME280;25451;51.960;6.250;2022-12-29T01:14:06;99829.06;;;11.11;84.72
39773;BME280;25451;51.960;6.250;2022-12-29T01:16:31;99830.69;;;11.12;84.64
39773;BME280;25451;51.960;6.250;2022-12-29T01:18:56;99819.66;;;11.07;84.54
39773;BME280;25451;51.960;6.250;2022-12-29T01:21:22;99846.16;;;11.08;84.44
39773;BME280;25451;51.960;6.250;2022-12-29T01:23:48;99846.16;;;11.08;84.66
39773;BME280;25451;51.960;6.250;2022-12-29T01:26:15;99846.16;;;11.08;84.67
39773;BME280;25451;51.960;6.250;2022-12-29T01:28:41;99835.13;;;11.08;84.67
39773;BME280;25451;51.960;6.250;2022-12-29T01:31:10;99823.22;;;11.08;84.55
39773;BME280;25451;51.960;6.250;2022-12-29T01:33:36;99808.06;;;11.05;84.90
39773;BME280;25451;51.960;6.250;2022-12-29T01:36:03;99811.38;;;11.07;84.61
39773;BME280;25451;51.960;6.250;2022-12-29T01:38:29;99813.59;;;11.05;84.55
39773;BME280;25451;51.960;6.250;2022-12-29T01:40:54;99822.44;;;11.07;84.67
39773;BME280;25451;51.960;6.250;2022-12-29T01:43:20;99816.06;;;11.07;84.50
39773;BME280;25451;51.960;6.250;2022-12-29T01:45:49;99807.78;;;11.07;84.51
39773;BME280;25451;51.960;6.250;2022-12-29T01:48:16;99797.56;;;11.07;84.66
39773;BME280;25451;51.960;6.250;2022-12-29T01:50:46;99790.09;;;11.08;84.69
39773;BME280;25451;51.960;6.250;2022-12-29T01:53:26;99796.72;;;11.07;84.70
39773;BME280;25451;51.960;6.250;2022-12-29T01:55:56;99790.94;;;11.08;84.60
39773;BME280;25451;51.960;6.250;2022-12-29T01:58:28;99782.09;;;11.06;84.41
39773;BME280;25451;51.960;6.250;2022-12-29T02:00:54;99780.72;;;11.09;84.38
39773;BME280;25451;51.960;6.250;2022-12-29T02:03:21;99787.09;;;11.09;84.65
39773;BME280;25451;51.960;6.250;2022-12-29T02:05:56;99794.25;;;11.10;84.64
39773;BME280;25451;51.960;6.250;2022-12-29T02:08:26;99789.56;;;11.11;84.54
39773;BME280;25451;51.960;6.250;2022-12-29T02:10:52;99781.81;;;11.08;84.62
39773;BME280;25451;51.960;6.250;2022-12-29T02:13:18;99781.56;;;11.09;84.71
39773;BME280;25451;51.960;6.250;2022-12-29T02:18:25;99787.91;;;11.15;84.40
39773;BME280;25451;51.960;6.250;2022-12-29T02:21:17;99782.09;;;11.16;84.46
39773;BME280;25451;51.960;6.250;2022-12-29T02:24:08;99790.94;;;11.18;84.41
39773;BME280;25451;51.960;6.250;2022-12-29T02:35:16;99781.00;;;11.22;84.42
39773;BME280;25451;51.960;6.250;2022-12-29T02:38:07;99782.69;;;11.23;84.32
39773;BME280;25451;51.960;6.250;2022-12-29T02:40:43;99766.13;;;11.23;84.72
39773;BME280;25451;51.960;6.250;2022-12-29T02:46:28;99770.53;;;11.24;84.50
39773;BME280;25451;51.960;6.250;2022-12-29T02:49:19;99775.78;;;11.26;84.43
39773;BME280;25451;51.960;6.250;2022-12-29T02:51:52;99773.84;;;11.26;84.45
39773;BME280;25451;51.960;6.250;2022-12-29T02:54:21;99763.06;;;11.25;84.48
39773;BME280;25451;51.960;6.250;2022-12-29T02:59:45;99762.22;;;11.24;84.42
39773;BME280;25451;51.960;6.250;2022-12-29T03:05:17;99756.16;;;11.27;84.38
39773;BME280;25451;51.960;6.250;2022-12-29T03:13:23;99744.00;;;11.28;84.42
39773;BME280;25451;51.960;6.250;2022-12-29T03:19:00;99747.59;;;11.29;84.67
39773;BME280;25451;51.960;6.250;2022-12-29T03:21:35;99742.91;;;11.29;84.53
39773;BME280;25451;51.960;6.250;2022-12-29T03:24:24;99724.94;;;11.27;84.47
39773;BME280;25451;51.960;6.250;2022-12-29T03:26:53;99716.13;;;11.20;84.35
39773;BME280;25451;51.960;6.250;2022-12-29T03:29:20;99737.69;;;11.28;84.51
39773;BME280;25451;51.960;6.250;2022-12-29T03:31:48;99735.72;;;11.28;84.29
39773;BME280;25451;51.960;6.250;2022-12-29T03:34:15;99739.59;;;11.27;84.57
39773;BME280;25451;51.960;6.250;2022-12-29T03:36:48;99733.81;;;11.24;84.17
39773;BME280;25451;51.960;6.250;2022-12-29T03:39:16;99740.44;;;11.28;84.34
39773;BME280;25451;51.960;6.250;2022-12-29T03:41:44;99732.41;;;11.26;84.26
39773;BME280;25451;51.960;6.250;2022-12-29T03:44:11;99732.41;;;11.26;84.26
39773;BME280;25451;51.960;6.250;2022-12-29T03:46:37;99724.41;;;11.25;84.34
39773;BME280;25451;51.960;6.250;2022-12-29T03:49:02;99721.94;;;11.23;84.41
39773;BME280;25451;51.960;6.250;2022-12-29T03:51:28;99725.53;;;11.24;84.12
39773;BME280;25451;51.960;6.250;2022-12-29T03:53:53;99722.22;;;11.22;84.19
39773;BME280;25451;51.960;6.250;2022-12-29T03:56:18;99728.81;;;11.21;84.17
39773;BME280;25451;51.960;6.250;2022-12-29T03:58:44;99728.25;;;11.19;84.07
39773;BME280;25451;51.960;6.250;2022-12-29T04:01:09;99721.09;;;11.13;84.21
39773;BME280;25451;51.960;6.250;2022-12-29T04:03:34;99726.34;;;11.19;84.19
39773;BME280;25451;51.960;6.250;2022-12-29T04:05:59;99731.88;;;11.19;83.96
39773;BME280;25451;51.960;6.250;2022-12-29T04:08:25;99738.22;;;11.20;84.07
39773;BME280;25451;51.960;6.250;2022-12-29T04:10:50;99753.97;;;11.19;84.04
39773;BME280;25451;51.960;6.250;2022-12-29T04:13:16;99732.41;;;11.16;84.29
39773;BME280;25451;51.960;6.250;2022-12-29T04:15:42;99734.63;;;11.19;83.98
39773;BME280;25451;51.960;6.250;2022-12-29T04:18:08;99740.97;;;11.20;83.87
39773;BME280;25451;51.960;6.250;2022-12-29T04:20:33;99726.88;;;11.16;83.89
39773;BME280;25451;51.960;6.250;2022-12-29T04:23:17;99737.38;;;11.19;84.07
39773;BME280;25451;51.960;6.250;2022-12-29T04:25:45;99747.31;;;11.20;84.10
39773;BME280;25451;51.960;6.250;2022-12-29T04:28:11;99742.34;;;11.17;83.91
39773;BME280;25451;51.960;6.250;2022-12-29T04:30:36;99730.19;;;11.18;83.96
39773;BME280;25451;51.960;6.250;2022-12-29T04:33:01;99732.69;;;11.20;84.02
39773;BME280;25451;51.960;6.250;2022-12-29T04:35:27;99744.56;;;11.20;84.20
39773;BME280;25451;51.960;6.250;2022-12-29T04:37:52;99747.31;;;11.20;83.89
39773;BME280;25451;51.960;6.250;2022-12-29T04:40:17;99730.47;;;11.17;83.82
39773;BME280;25451;51.960;6.250;2022-12-29T04:42:43;99745.66;;;11.19;83.49
39773;BME280;25451;51.960;6.250;2022-12-29T04:45:08;99740.16;;;11.19;83.70
39773;BME280;25451;51.960;6.250;2022-12-29T04:47:34;99750.06;;;11.20;83.81
39773;BME280;25451;51.960;6.250;2022-12-29T04:49:59;99752.84;;;11.20;83.72
39773;BME280;25451;51.960;6.250;2022-12-29T04:52:24;99763.88;;;11.20;83.83
39773;BME280;25451;51.960;6.250;2022-12-29T04:54:50;99766.94;;;11.19;83.74
39773;BME280;25451;51.960;6.250;2022-12-29T04:57:15;99744.84;;;11.19;83.67
39773;BME280;25451;51.960;6.250;2022-12-29T04:59:40;99741.81;;;11.15;83.64
39773;BME280;25451;51.960;6.250;2022-12-29T05:02:05;99747.31;;;11.15;83.55
39773;BME280;25451;51.960;6.250;2022-12-29T05:04:31;99754.50;;;11.16;83.78
39773;BME280;25451;51.960;6.250;2022-12-29T05:06:56;99760.00;;;11.16;83.80
39773;BME280;25451;51.960;6.250;2022-12-29T05:09:21;99764.69;;;11.16;83.84
39773;BME280;25451;51.960;6.250;2022-12-29T05:11:47;99764.97;;;11.14;83.76
39773;BME280;25451;51.960;6.250;2022-12-29T05:14:12;99757.50;;;11.10;83.57
39773;BME280;25451;51.960;6.250;2022-12-29T05:16:37;99758.06;;;11.12;83.90
39773;BME280;25451;51.960;6.250;2022-12-29T05:19:03;99751.72;;;11.06;84.03
39773;BME280;25451;51.960;6.250;2022-12-29T05:21:28;99765.00;;;11.09;83.95
39773;BME280;25451;51.960;6.250;2022-12-29T05:23:53;99768.00;;;11.08;84.23
39773;BME280;25451;51.960;6.250;2022-12-29T05:26:18;99770.22;;;11.06;83.79
39773;BME280;25451;51.960;6.250;2022-12-29T05:28:44;99766.09;;;11.03;83.98
39773;BME280;25451;51.960;6.250;2022-12-29T05:31:09;99770.50;;;11.04;83.66
39773;BME280;25451;51.960;6.250;2022-12-29T05:33:34;99792.88;;;11.03;83.91
39773;BME280;25451;51.960;6.250;2022-12-29T05:36:04;99803.63;;;10.99;83.72
39773;BME280;25451;51.960;6.250;2022-12-29T05:38:30;99812.16;;;10.98;83.92
39773;BME280;25451;51.960;6.250;2022-12-29T05:40:55;99819.09;;;10.95;83.97
39773;BME280;25451;51.960;6.250;2022-12-29T05:43:20;99822.09;;;10.94;84.07
39773;BME280;25451;51.960;6.250;2022-12-29T05:45:48;99827.34;;;10.90;84.20
39773;BME280;25451;51.960;6.250;2022-12-29T05:48:14;99840.84;;;10.92;84.22
39773;BME280;25451;51.960;6.250;2022-12-29T05:50:39;99835.59;;;10.90;84.10
39773;BME280;25451;51.960;6.250;2022-12-29T05:53:05;99834.50;;;10.86;83.94
39773;BME280;25451;51.960;6.250;2022-12-29T05:55:30;99841.69;;;10.87;83.99
39773;BME280;25451;51.960;6.250;2022-12-29T05:57:56;99844.44;;;10.87;84.13
39773;BME280;25451;51.960;6.250;2022-12-29T06:00:21;99848.00;;;10.82;84.15
39773;BME280;25451;51.960;6.250;2022-12-29T06:02:46;99850.22;;;10.80;83.93
39773;BME280;25451;51.960;6.250;2022-12-29T06:05:12;99847.72;;;10.79;84.18
39773;BME280;25451;51.960;6.250;2022-12-29T06:07:37;99839.41;;;10.74;84.00
39773;BME280;25451;51.960;6.250;2022-12-29T06:10:04;99839.94;;;10.71;84.03
39773;BME280;25451;51.960;6.250;2022-12-29T06:12:30;99840.50;;;10.68;84.27
39773;BME280;25451;51.960;6.250;2022-12-29T06:14:55;99843.78;;;10.65;84.15
39773;BME280;25451;51.960;6.250;2022-12-29T06:17:20;99842.66;;;10.61;84.10
39773;BME280;25451;51.960;6.250;2022-12-29T06:19:45;99848.69;;;10.53;84.29
39773;BME280;25451;51.960;6.250;2022-12-29T06:22:11;99855.59;;;10.50;84.25
39773;BME280;25451;51.960;6.250;2022-12-29T06:24:37;99865.22;;;10.48;84.38
39773;BME280;25451;51.960;6.250;2022-12-29T06:27:03;99844.78;;;10.44;84.48
39773;BME280;25451;51.960;6.250;2022-12-29T06:29:28;99860.50;;;10.43;84.14
39773;BME280;25451;51.960;6.250;2022-12-29T06:31:53;99842.56;;;10.41;84.31
39773;BME280;25451;51.960;6.250;2022-12-29T06:34:23;99842.53;;;10.36;84.33
39773;BME280;25451;51.960;6.250;2022-12-29T06:36:48;99845.56;;;10.34;84.08
39773;BME280;25451;51.960;6.250;2022-12-29T06:39:14;99853.53;;;10.31;84.08
39773;BME280;25451;51.960;6.250;2022-12-29T06:41:39;99858.47;;;10.29;84.16
39773;BME280;25451;51.960;6.250;2022-12-29T06:44:04;99868.38;;;10.25;84.14
39773;BME280;25451;51.960;6.250;2022-12-29T06:46:30;99868.94;;;10.22;84.09
39773;BME280;25451;51.960;6.250;2022-12-29T06:48:55;99868.63;;;10.18;83.95
39773;BME280;25451;51.960;6.250;2022-12-29T06:51:20;99867.47;;;10.14;84.29
39773;BME280;25451;51.960;6.250;2022-12-29T06:53:45;99860.59;;;10.12;84.13
39773;BME280;25451;51.960;6.250;2022-12-29T06:56:11;99863.84;;;10.09;84.06
39773;BME280;25451;51.960;6.250;2022-12-29T06:58:36;99858.88;;;10.06;84.07
39773;BME280;25451;51.960;6.250;2022-12-29T07:01:01;99853.88;;;10.02;83.79
39773;BME280;25451;51.960;6.250;2022-12-29T07:03:26;99843.63;;;9.98;83.83
39773;BME280;25451;51.960;6.250;2022-12-29T07:05:52;99864.31;;;10.00;83.89
39773;BME280;25451;51.960;6.250;2022-12-29T07:08:17;99854.09;;;9.96;83.94
39773;BME280;25451;51.960;6.250;2022-12-29T07:10:42;99855.75;;;9.97;83.97
39773;BME280;25451;51.960;6.250;2022-12-29T07:13:08;99869.53;;;9.97;84.00
39773;BME280;25451;51.960;6.250;2022-12-29T07:15:34;99869.25;;;9.93;83.78
39773;BME280;25451;51.960;6.250;2022-12-29T07:17:59;99866.22;;;9.95;83.69
39773;BME280;25451;51.960;6.250;2022-12-29T07:20:25;99875.84;;;9.92;83.57
39773;BME280;25451;51.960;6.250;2022-12-29T07:22:50;99888.53;;;9.93;83.49
39773;BME280;25451;51.960;6.250;2022-12-29T07:25:15;99879.72;;;9.91;83.81
39773;BME280;25451;51.960;6.250;2022-12-29T07:27:40;99880.28;;;9.93;83.59
39773;BME280;25451;51.960;6.250;2022-12-29T07:30:06;99878.03;;;9.90;83.48
39773;BME280;25451;51.960;6.250;2022-12-29T07:32:33;99895.41;;;9.91;83.67
39773;BME280;25451;51.960;6.250;2022-12-29T07:34:58;99892.91;;;9.89;83.31
39773;BME280;25451;51.960;6.250;2022-12-29T07:37:24;99887.97;;;9.91;83.42
39773;BME280;25451;51.960;6.250;2022-12-29T07:39:49;99883.53;;;9.90;83.20
39773;BME280;25451;51.960;6.250;2022-12-29T07:42:14;99876.06;;;9.86;83.41
39773;BME280;25451;51.960;6.250;2022-12-29T07:44:40;99882.47;;;9.91;83.19
39773;BME280;25451;51.960;6.250;2022-12-29T07:47:05;99886.03;;;9.92;83.28
39773;BME280;25451;51.960;6.250;2022-12-29T07:49:30;99892.38;;;9.92;83.32
39773;BME280;25451;51.960;6.250;2022-12-29T07:51:55;99885.78;;;9.93;83.08
39773;BME280;25451;51.960;6.250;2022-12-29T07:54:21;99888.53;;;9.93;83.19
39773;BME280;25451;51.960;6.250;2022-12-29T07:56:47;99886.88;;;9.92;83.04
39773;BME280;25451;51.960;6.250;2022-12-29T07:59:13;99903.41;;;9.92;83.32
39773;BME280;25451;51.960;6.250;2022-12-29T08:01:38;99907.84;;;9.93;83.03
39773;BME280;25451;51.960;6.250;2022-12-29T08:04:04;99908.66;;;9.94;83.01
39773;BME280;25451;51.960;6.250;2022-12-29T08:06:29;99912.78;;;9.91;82.98
39773;BME280;25451;51.960;6.250;2022-12-29T08:08:56;99922.19;;;9.95;82.95
39773;BME280;25451;51.960;6.250;2022-12-29T08:11:21;99920.50;;;9.94;82.95
39773;BME280;25451;51.960;6.250;2022-12-29T08:13:47;99931.03;;;9.97;82.71
39773;BME280;25451;51.960;6.250;2022-12-29T08:16:12;99946.47;;;9.98;82.96
39773;BME280;25451;51.960;6.250;2022-12-29T08:18:38;99932.66;;;9.98;82.93
39773;BME280;25451;51.960;6.250;2022-12-29T08:21:04;99933.25;;;10.00;82.62
39773;BME280;25451;51.960;6.250;2022-12-29T08:23:30;99925.25;;;9.99;82.51
39773;BME280;25451;51.960;6.250;2022-12-29T08:25:59;99925.25;;;9.99;82.29
39773;BME280;25451;51.960;6.250;2022-12-29T08:28:26;99932.97;;;10.02;82.66
39773;BME280;25451;51.960;6.250;2022-12-29T08:30:52;99949.28;;;10.03;82.45
39773;BME280;25451;51.960;6.250;2022-12-29T08:33:17;99959.72;;;10.01;82.42
39773;BME280;25451;51.960;6.250;2022-12-29T08:35:42;99958.91;;;10.01;82.50
39773;BME280;25451;51.960;6.250;2022-12-29T08:38:08;99952.03;;;10.03;82.48
39773;BME280;25451;51.960;6.250;2022-12-29T08:40:33;99959.19;;;10.04;82.10
39773;BME280;25451;51.960;6.250;2022-12-29T08:42:58;99958.09;;;10.06;82.31
39773;BME280;25451;51.960;6.250;2022-12-29T08:45:23;99949.84;;;10.06;82.24
39773;BME280;25451;51.960;6.250;2022-12-29T08:47:49;99953.97;;;10.08;81.85
39773;BME280;25451;51.960;6.250;2022-12-29T08:50:14;99945.69;;;10.08;81.93
39773;BME280;25451;51.960;6.250;2022-12-29T08:52:39;99952.91;;;10.09;81.83
39773;BME280;25451;51.960;6.250;2022-12-29T08:55:05;99946.31;;;10.10;81.90
39773;BME280;25451;51.960;6.250;2022-12-29T08:57:30;99951.75;;;10.05;81.85
39773;BME280;25451;51.960;6.250;2022-12-29T08:59:55;99951.81;;;10.10;82.35
39773;BME280;25451;51.960;6.250;2022-12-29T09:02:21;99949.91;;;10.11;81.83
39773;BME280;25451;51.960;6.250;2022-12-29T09:04:46;99947.97;;;10.11;81.78
39773;BME280;25451;51.960;6.250;2022-12-29T09:07:11;99949.38;;;10.14;81.81
39773;BME280;25451;51.960;6.250;2022-12-29T09:09:36;99944.69;;;10.14;81.76
39773;BME280;25451;51.960;6.250;2022-12-29T09:12:02;99940.56;;;10.17;81.49
39773;BME280;25451;51.960;6.250;2022-12-29T09:14:27;99938.44;;;10.24;81.52
39773;BME280;25451;51.960;6.250;2022-12-29T09:16:53;99936.25;;;10.26;81.30
39773;BME280;25451;51.960;6.250;2022-12-29T09:19:38;99940.13;;;10.30;81.43
39773;BME280;25451;51.960;6.250;2022-12-29T09:22:03;99934.63;;;10.30;81.14
39773;BME280;25451;51.960;6.250;2022-12-29T09:24:28;99953.94;;;10.35;81.32
39773;BME280;25451;51.960;6.250;2022-12-29T09:26:53;99952.88;;;10.36;81.38
39773;BME280;25451;51.960;6.250;2022-12-29T09:29:19;99956.19;;;10.38;81.11
39773;BME280;25451;51.960;6.250;2022-12-29T09:31:44;99950.38;;;10.34;81.07
39773;BME280;25451;51.960;6.250;2022-12-29T09:34:09;99970.56;;;10.40;81.12
39773;BME280;25451;51.960;6.250;2022-12-29T09:36:35;99964.19;;;10.39;81.26
39773;BME280;25451;51.960;6.250;2022-12-29T09:39:00;99975.22;;;10.39;81.08
39773;BME280;25451;51.960;6.250;2022-12-29T09:44:20;99976.06;;;10.40;80.98
39773;BME280;25451;51.960;6.250;2022-12-29T09:46:50;99979.09;;;10.38;80.83
39773;BME280;25451;51.960;6.250;2022-12-29T09:49:28;99993.69;;;10.39;81.27
39773;BME280;25451;51.960;6.250;2022-12-29T09:52:01;99991.22;;;10.37;81.21
39773;BME280;25451;51.960;6.250;2022-12-29T09:54:36;99988.47;;;10.37;81.03
39773;BME280;25451;51.960;6.250;2022-12-29T09:57:13;99980.75;;;10.39;81.26
39773;BME280;25451;51.960;6.250;2022-12-29T09:59:41;99983.78;;;10.38;81.39
39773;BME280;25451;51.960;6.250;2022-12-29T10:02:36;99990.44;;;10.42;81.22
39773;BME280;25451;51.960;6.250;2022-12-29T10:05:02;99989.59;;;10.41;81.15
39773;BME280;25451;51.960;6.250;2022-12-29T10:07:47;100006.97;;;10.42;81.18
39773;BME280;25451;51.960;6.250;2022-12-29T10:10:20;99999.53;;;10.42;81.07
39773;BME280;25451;51.960;6.250;2022-12-29T10:23:56;100030.47;;;10.44;81.26
39773;BME280;25451;51.960;6.250;2022-12-29T10:26:23;100022.41;;;10.43;81.24
39773;BME280;25451;51.960;6.250;2022-12-29T10:28:56;100025.19;;;10.43;81.14
39773;BME280;25451;51.960;6.250;2022-12-29T10:31:24;100028.78;;;10.43;81.18
39773;BME280;25451;51.960;6.250;2022-12-29T10:33:57;100024.09;;;10.44;81.39
39773;BME280;25451;51.960;6.250;2022-12-29T10:36:30;100027.38;;;10.41;81.14
39773;BME280;25451;51.960;6.250;2022-12-29T10:39:06;100029.88;;;10.42;81.23
39773;BME280;25451;51.960;6.250;2022-12-29T10:41:40;100043.41;;;10.44;81.31
39773;BME280;25451;51.960;6.250;2022-12-29T10:44:13;100038.72;;;10.44;81.19
39773;BME280;25451;51.960;6.250;2022-12-29T10:46:39;100040.09;;;10.42;81.40
39773;BME280;25451;51.960;6.250;2022-12-29T10:49:06;100049.50;;;10.46;81.10
39773;BME280;25451;51.960;6.250;2022-12-29T10:51:38;100052.25;;;10.46;81.16
39773;BME280;25451;51.960;6.250;2022-12-29T10:54:20;100060.53;;;10.46;81.18
39773;BME280;25451;51.960;6.250;2022-12-29T10:59:29;100063.28;;;10.46;81.33
39773;BME280;25451;51.960;6.250;2022-12-29T11:04:55;100072.13;;;10.48;81.29
39773;BME280;25451;51.960;6.250;2022-12-29T11:07:22;100076.81;;;10.47;81.32
39773;BME280;25451;51.960;6.250;2022-12-29T11:09:48;100087.84;;;10.47;81.33
39773;BME280;25451;51.960;6.250;2022-12-29T11:12:27;100087.59;;;10.49;81.22
39773;BME280;25451;51.960;6.250;2022-12-29T11:15:12;100086.50;;;10.50;81.37
39773;BME280;25451;51.960;6.250;2022-12-29T11:17:50;100094.50;;;10.51;81.30
39773;BME280;25451;51.960;6.250;2022-12-29T11:20:30;100084.00;;;10.48;81.40
39773;BME280;25451;51.960;6.250;2022-12-29T11:22:56;100097.00;;;10.53;81.46
39773;BME280;25451;51.960;6.250;2022-12-29T11:25:22;100088.47;;;10.54;81.31
39773;BME280;25451;51.960;6.250;2022-12-29T11:28:01;100100.09;;;10.56;81.50
39773;BME280;25451;51.960;6.250;2022-12-29T11:30:29;100114.19;;;10.60;81.40
39773;BME280;25451;51.960;6.250;2022-12-29T11:32:56;100103.72;;;10.62;81.38
39773;BME280;25451;51.960;6.250;2022-12-29T11:35:40;100108.13;;;10.63;81.28
39773;BME280;25451;51.960;6.250;2022-12-29T11:38:18;100100.69;;;10.63;81.44
39773;BME280;25451;51.960;6.250;2022-12-29T11:40:45;100109.25;;;10.67;81.53
39773;BME280;25451;51.960;6.250;2022-12-29T11:43:21;100117.03;;;10.70;81.03
39773;BME280;25451;51.960;6.250;2022-12-29T11:45:52;100130.28;;;10.73;81.31
39773;BME280;25451;51.960;6.250;2022-12-29T11:48:20;100122.00;;;10.73;81.23
39773;BME280;25451;51.960;6.250;2022-12-29T11:50:54;100117.59;;;10.72;81.15
39773;BME280;25451;51.960;6.250;2022-12-29T11:53:22;100141.41;;;10.78;81.23
39773;BME280;25451;51.960;6.250;2022-12-29T11:55:56;100133.94;;;10.78;81.35
39773;BME280;25451;51.960;6.250;2022-12-29T11:58:32;100145.84;;;10.79;81.52
39773;BME280;25451;51.960;6.250;2022-12-29T12:01:23;100148.31;;;10.80;81.25
39773;BME280;25451;51.960;6.250;2022-12-29T12:04:14;100151.66;;;10.82;81.30
39773;BME280;25451;51.960;6.250;2022-12-29T12:09:32;100153.06;;;10.85;81.20
39773;BME280;25451;51.960;6.250;2022-12-29T12:12:01;100166.31;;;10.88;81.30
39773;BME280;25451;51.960;6.250;2022-12-29T12:14:37;100158.59;;;10.90;81.27
39773;BME280;25451;51.960;6.250;2022-12-29T12:17:12;100163.28;;;10.90;81.49
39773;BME280;25451;51.960;6.250;2022-12-29T12:19:44;100162.78;;;10.93;81.28
39773;BME280;25451;51.960;6.250;2022-12-29T12:22:32;100162.50;;;10.94;81.18
39773;BME280;25451;51.960;6.250;2022-12-29T12:25:09;100154.22;;;10.94;81.16
39773;BME280;25451;51.960;6.250;2022-12-29T12:27:40;100164.19;;;10.95;81.29
39773;BME280;25451;51.960;6.250;2022-12-29T12:30:15;100165.84;;;10.96;81.24
39773;BME280;25451;51.960;6.250;2022-12-29T12:41:20;100170.78;;;10.94;81.15
39773;BME280;25451;51.960;6.250;2022-12-29T12:44:20;100180.75;;;10.95;81.11
39773;BME280;25451;51.960;6.250;2022-12-29T12:53:24;100185.16;;;10.96;81.04
39773;BME280;25451;51.960;6.250;2022-12-29T12:58:55;100181.00;;;10.94;81.24
39773;BME280;25451;51.960;6.250;2022-12-29T13:01:47;100195.38;;;10.96;80.73
39773;BME280;25451;51.960;6.250;2022-12-29T13:06:58;100192.88;;;10.94;81.12
39773;BME280;25451;51.960;6.250;2022-12-29T13:12:58;100210.56;;;10.93;81.03
39773;BME280;25451;51.960;6.250;2022-12-29T13:20:42;100201.72;;;10.91;80.87
39773;BME280;25451;51.960;6.250;2022-12-29T13:25:59;100217.16;;;10.92;80.90
39773;BME280;25451;51.960;6.250;2022-12-29T13:28:56;100221.03;;;10.91;80.84
39773;BME280;25451;51.960;6.250;2022-12-29T13:31:30;100230.13;;;10.92;80.86
39773;BME280;25451;51.960;6.250;2022-12-29T13:37:09;100222.09;;;10.90;80.81
39773;BME280;25451;51.960;6.250;2022-12-29T13:39:46;100225.19;;;10.94;80.80
39773;BME280;25451;51.960;6.250;2022-12-29T13:42:13;100225.19;;;10.94;80.74
39773;BME280;25451;51.960;6.250;2022-12-29T13:44:54;100238.75;;;10.95;81.04
39773;BME280;25451;51.960;6.250;2022-12-29T13:47:26;100241.50;;;10.95;80.84
39773;BME280;25451;51.960;6.250;2022-12-29T13:49:53;100239.31;;;10.97;80.75
39773;BME280;25451;51.960;6.250;2022-12-29T13:52:35;100229.31;;;10.91;80.90
39773;BME280;25451;51.960;6.250;2022-12-29T13:55:20;100245.63;;;10.98;80.95
39773;BME280;25451;51.960;6.250;2022-12-29T13:58:09;100243.72;;;10.98;80.73
39773;BME280;25451;51.960;6.250;2022-12-29T14:00:50;100255.88;;;10.97;80.69
39773;BME280;25451;51.960;6.250;2022-12-29T14:06:29;100255.03;;;10.97;80.71
39773;BME280;25451;51.960;6.250;2022-12-29T14:08:58;100244.25;;;10.95;80.58
39773;BME280;25451;51.960;6.250;2022-12-29T14:11:36;100249.78;;;10.95;80.61
39773;BME280;25451;51.960;6.250;2022-12-29T14:14:17;100253.63;;;10.94;80.75
39773;BME280;25451;51.960;6.250;2022-12-29T14:16:43;100251.97;;;10.93;80.74
39773;BME280;25451;51.960;6.250;2022-12-29T14:19:15;100251.97;;;10.93;80.77
39773;BME280;25451;51.960;6.250;2022-12-29T14:21:50;100265.72;;;10.88;80.54
39773;BME280;25451;51.960;6.250;2022-12-29T14:34:59;100285.56;;;10.85;80.78
39773;BME280;25451;51.960;6.250;2022-12-29T14:37:28;100291.88;;;10.80;80.29
39773;BME280;25451;51.960;6.250;2022-12-29T14:42:32;100277.41;;;10.73;80.73
39773;BME280;25451;51.960;6.250;2022-12-29T14:45:08;100279.09;;;10.74;80.57
39773;BME280;25451;51.960;6.250;2022-12-29T14:47:48;100279.28;;;10.68;80.61
39773;BME280;25451;51.960;6.250;2022-12-29T14:50:18;100291.41;;;10.67;80.71
39773;BME280;25451;51.960;6.250;2022-12-29T14:52:50;100300.53;;;10.67;80.81
39773;BME280;25451;51.960;6.250;2022-12-29T14:57:51;100295.19;;;10.61;80.70